Time;durP1;ratioP1;P1;durP2;ratioP2;P2;SDS_P1;SDS_P2;PMS_P1;PMS_P2;Temp;Humidity;BMP_temperature;BMP_pressure;BME280_temperature;BME280_humidity;BME280_pressure;Samples;Min_cycle;Max_cycle;Signal;HPM_P1;HPM_P2
2021/08/19 00:01:21;;;;;;;11.37;8.80;;;;;;;;;;5033143;28;20456;-59
2021/08/19 00:03:50;;;;;;;9.63;8.63;;;;;;;;;;5033244;28;20483;-58
2021/08/19 00:06:17;;;;;;;8.83;8.00;;;;;;;;;;5033091;28;20473;-59
2021/08/19 00:08:44;;;;;;;8.30;7.60;;;;;;;;;;5033371;28;20449;-59
2021/08/19 00:11:13;;;;;;;8.03;7.30;;;;;;;;;;5033656;28;20445;-59
2021/08/19 00:13:42;;;;;;;8.77;7.87;;;;;;;;;;5033319;28;20485;-59
2021/08/19 00:16:09;;;;;;;8.23;7.47;;;;;;;;;;5057507;22;20488;-62
2021/08/19 00:18:37;;;;;;;7.97;7.27;;;;;;;;;;5033489;28;20491;-62
2021/08/19 00:21:06;;;;;;;9.40;7.30;;;;;;;;;;5033738;28;20448;-62
2021/08/19 00:23:34;;;;;;;8.00;7.00;;;;;;;;;;5034320;28;20849;-62
2021/08/19 00:26:02;;;;;;;8.97;8.07;;;;;;;;;;5037338;28;20500;-61
2021/08/19 00:28:29;;;;;;;7.77;7.03;;;;;;;;;;5036941;28;20441;-62
2021/08/19 00:30:56;;;;;;;7.77;6.50;;;;;;;;;;5037150;28;20440;-62
2021/08/19 00:33:24;;;;;;;9.07;7.27;;;;;;;;;;5037267;28;20503;-62
2021/08/19 00:35:51;;;;;;;7.77;6.93;;;;;;;;;;5036754;28;20520;-63
2021/08/19 00:38:20;;;;;;;9.70;7.40;;;;;;;;;;5036766;28;20944;-62
2021/08/19 00:40:47;;;;;;;8.07;7.20;;;;;;;;;;5037021;28;20511;-62
2021/08/19 00:43:14;;;;;;;7.53;5.90;;;;;;;;;;5036719;28;20441;-62
2021/08/19 00:45:41;;;;;;;6.47;5.70;;;;;;;;;;5036867;28;20809;-62
2021/08/19 00:48:09;;;;;;;6.43;5.53;;;;;;;;;;5036914;28;20444;-62
2021/08/19 00:50:38;;;;;;;7.90;7.03;;;;;;;;;;5036502;28;20491;-62
2021/08/19 00:53:05;;;;;;;7.60;6.90;;;;;;;;;;5036614;28;20502;-62
2021/08/19 00:55:34;;;;;;;9.17;7.17;;;;;;;;;;5036317;28;20469;-62
2021/08/19 00:58:01;;;;;;;10.50;7.73;;;;;;;;;;5036695;28;20452;-62
2021/08/19 01:00:28;;;;;;;8.23;7.30;;;;;;;;;;5036320;28;20995;-62
2021/08/19 01:02:58;;;;;;;9.07;7.30;;;;;;;;;;5036512;28;20445;-62
2021/08/19 01:05:26;;;;;;;9.03;7.73;;;;;;;;;;5036148;28;20461;-62
2021/08/19 01:07:53;;;;;;;10.27;8.57;;;;;;;;;;5036488;28;20440;-62
2021/08/19 01:10:21;;;;;;;9.13;7.97;;;;;;;;;;5036369;28;20507;-62
2021/08/19 01:12:49;;;;;;;9.53;7.07;;;;;;;;;;5036307;28;20440;-62
2021/08/19 01:15:16;;;;;;;8.83;7.63;;;;;;;;;;5035887;28;20485;-63
2021/08/19 01:17:44;;;;;;;8.70;7.13;;;;;;;;;;5036320;28;20433;-62
2021/08/19 01:20:11;;;;;;;8.60;7.33;;;;;;;;;;5036173;28;20457;-62
2021/08/19 01:22:39;;;;;;;9.50;7.17;;;;;;;;;;5036095;28;20457;-62
2021/08/19 01:25:06;;;;;;;8.67;7.03;;;;;;;;;;5035961;28;20469;-63
2021/08/19 01:27:35;;;;;;;8.53;7.00;;;;;;;;;;5036091;28;20456;-62
2021/08/19 01:30:02;;;;;;;9.10;7.00;;;;;;;;;;5035833;28;20991;-62
2021/08/19 01:32:33;;;;;;;10.40;7.10;;;;;;;;;;5035946;28;20449;-62
2021/08/19 01:35:00;;;;;;;9.97;6.93;;;;;;;;;;5034923;28;20465;-63
2021/08/19 01:37:27;;;;;;;8.60;7.43;;;;;;;;;;5035654;28;20506;-62
2021/08/19 01:39:54;;;;;;;9.70;8.70;;;;;;;;;;5035638;28;20502;-62
2021/08/19 01:42:22;;;;;;;9.97;7.97;;;;;;;;;;5035817;28;20445;-62
2021/08/19 01:44:50;;;;;;;7.80;7.10;;;;;;;;;;5035485;28;20437;-62
2021/08/19 01:47:20;;;;;;;13.00;7.67;;;;;;;;;;5035502;28;20941;-62
2021/08/19 01:49:47;;;;;;;8.77;7.63;;;;;;;;;;5035541;28;20463;-62
2021/08/19 01:52:14;;;;;;;8.70;7.80;;;;;;;;;;5037660;28;20445;-62
2021/08/19 01:54:42;;;;;;;7.77;7.03;;;;;;;;;;5035833;28;20477;-63
2021/08/19 01:57:09;;;;;;;8.60;7.73;;;;;;;;;;5035795;28;20445;-62
2021/08/19 01:59:37;;;;;;;10.00;7.60;;;;;;;;;;5037492;28;20445;-62
2021/08/19 02:02:05;;;;;;;8.90;7.30;;;;;;;;;;5038164;28;20445;-62
2021/08/19 02:04:33;;;;;;;9.17;7.07;;;;;;;;;;5037347;28;20490;-62
2021/08/19 02:07:00;;;;;;;8.60;6.90;;;;;;;;;;5037094;28;20488;-62
2021/08/19 02:09:27;;;;;;;9.37;7.13;;;;;;;;;;5043457;28;20448;-62
2021/08/19 02:11:54;;;;;;;8.80;7.83;;;;;;;;;;5036841;28;20449;-62
2021/08/19 02:14:21;;;;;;;9.37;7.03;;;;;;;;;;5037148;28;20985;-62
2021/08/19 02:16:49;;;;;;;9.97;8.20;;;;;;;;;;5035352;28;20477;-62
2021/08/19 02:19:17;;;;;;;11.10;7.17;;;;;;;;;;5036165;28;20444;-62
2021/08/19 02:21:44;;;;;;;8.27;7.30;;;;;;;;;;5036427;28;20441;-62
2021/08/19 02:24:12;;;;;;;8.20;7.40;;;;;;;;;;5035580;28;20519;-62
2021/08/19 02:26:39;;;;;;;8.27;6.83;;;;;;;;;;5034672;28;20522;-62
2021/08/19 02:29:06;;;;;;;9.10;8.17;;;;;;;;;;5035115;28;20441;-63
2021/08/19 02:31:33;;;;;;;8.80;7.90;;;;;;;;;;5034831;28;20449;-63
2021/08/19 02:34:02;;;;;;;7.20;6.43;;;;;;;;;;5034806;28;20481;-62
2021/08/19 02:36:30;;;;;;;8.97;7.70;;;;;;;;;;5034505;28;20976;-62
2021/08/19 02:38:58;;;;;;;9.80;7.20;;;;;;;;;;5034786;28;20856;-62
2021/08/19 02:41:25;;;;;;;7.80;6.70;;;;;;;;;;5034720;28;20441;-62
2021/08/19 02:43:52;;;;;;;7.37;6.53;;;;;;;;;;5034378;28;20445;-62
2021/08/19 02:46:19;;;;;;;7.90;7.10;;;;;;;;;;5034218;28;20507;-62
2021/08/19 02:48:46;;;;;;;7.80;7.00;;;;;;;;;;5033865;28;20445;-62
2021/08/19 02:51:14;;;;;;;8.60;6.83;;;;;;;;;;5034234;28;20507;-62
2021/08/19 02:53:42;;;;;;;6.87;6.17;;;;;;;;;;5034025;28;20480;-62
2021/08/19 02:56:10;;;;;;;9.03;6.70;;;;;;;;;;5034191;28;20465;-62
2021/08/19 02:58:37;;;;;;;7.73;6.73;;;;;;;;;;5034449;28;20441;-62
2021/08/19 03:01:04;;;;;;;8.00;6.93;;;;;;;;;;5034607;28;20511;-62
2021/08/19 03:03:31;;;;;;;9.13;7.03;;;;;;;;;;5034166;28;20853;-62
2021/08/19 03:05:58;;;;;;;7.70;6.90;;;;;;;;;;5033957;28;20476;-62
2021/08/19 03:08:26;;;;;;;7.73;6.97;;;;;;;;;;5034154;28;20457;-62
2021/08/19 03:10:54;;;;;;;7.30;6.60;;;;;;;;;;5034378;28;20515;-62
2021/08/19 03:13:22;;;;;;;9.93;7.90;;;;;;;;;;5034228;28;20445;-62
2021/08/19 03:15:49;;;;;;;8.50;6.60;;;;;;;;;;5034107;28;20537;-61
2021/08/19 03:18:16;;;;;;;8.17;6.77;;;;;;;;;;5034131;28;20628;-62
2021/08/19 03:20:43;;;;;;;9.03;6.80;;;;;;;;;;5034004;28;20457;-62
2021/08/19 03:23:10;;;;;;;8.20;7.17;;;;;;;;;;5033705;28;20449;-62
2021/08/19 03:25:38;;;;;;;6.70;6.10;;;;;;;;;;5033648;28;20511;-62
2021/08/19 03:28:08;;;;;;;7.60;6.37;;;;;;;;;;5033656;28;20457;-62
2021/08/19 03:30:36;;;;;;;6.90;6.20;;;;;;;;;;5033920;28;20449;-62
2021/08/19 03:33:04;;;;;;;7.90;6.30;;;;;;;;;;5033944;28;20452;-62
2021/08/19 03:35:31;;;;;;;8.63;7.63;;;;;;;;;;5033519;28;20495;-62
2021/08/19 03:37:59;;;;;;;9.10;7.40;;;;;;;;;;5033476;28;20453;-62
2021/08/19 03:40:26;;;;;;;9.27;6.90;;;;;;;;;;5033630;28;20441;-62
2021/08/19 03:42:54;;;;;;;8.40;6.90;;;;;;;;;;5033263;28;20942;-62
2021/08/19 03:45:22;;;;;;;14.53;6.97;;;;;;;;;;5033617;28;20469;-63
2021/08/19 03:47:50;;;;;;;9.13;7.03;;;;;;;;;;5033276;28;20449;-62
2021/08/19 03:50:17;;;;;;;9.30;7.50;;;;;;;;;;5033519;28;20468;-62
2021/08/19 03:52:44;;;;;;;11.30;7.27;;;;;;;;;;5033456;28;20514;-62
2021/08/19 03:55:11;;;;;;;9.43;6.30;;;;;;;;;;5032980;28;21018;-61
2021/08/19 03:57:39;;;;;;;8.00;7.20;;;;;;;;;;5034523;28;20449;-61
2021/08/19 04:00:07;;;;;;;8.13;7.33;;;;;;;;;;5035140;28;20937;-63
2021/08/19 04:02:36;;;;;;;7.77;6.97;;;;;;;;;;5036843;28;20503;-62
2021/08/19 04:08:30;;;;;;;8.87;8.03;;;;;;;;;;5114788;27;20582;-62
2021/08/19 04:10:57;;;;;;;9.50;7.97;;;;;;;;;;5111759;28;20438;-62
2021/08/19 04:13:24;;;;;;;9.80;8.20;;;;;;;;;;5111516;28;20499;-62
2021/08/19 04:15:52;;;;;;;10.90;7.90;;;;;;;;;;5111149;28;20457;-63
2021/08/19 04:18:19;;;;;;;8.47;7.43;;;;;;;;;;5111166;28;20446;-63
2021/08/19 04:20:46;;;;;;;9.40;8.40;;;;;;;;;;5111322;28;20544;-64
2021/08/19 04:23:13;;;;;;;10.10;9.03;;;;;;;;;;5110911;28;21070;-61
2021/08/19 04:25:42;;;;;;;10.13;9.00;;;;;;;;;;5111219;28;20465;-63
2021/08/19 04:28:09;;;;;;;12.27;9.60;;;;;;;;;;5110843;28;20891;-62
2021/08/19 04:30:36;;;;;;;9.70;8.70;;;;;;;;;;5110776;28;20463;-63
2021/08/19 04:33:04;;;;;;;10.47;8.70;;;;;;;;;;5111349;28;20444;-63
2021/08/19 04:35:32;;;;;;;10.77;9.00;;;;;;;;;;5110687;28;20538;-63
2021/08/19 04:37:59;;;;;;;10.00;8.70;;;;;;;;;;5110917;28;20463;-63
2021/08/19 04:40:27;;;;;;;13.10;8.67;;;;;;;;;;5110610;28;20956;-62
2021/08/19 04:42:55;;;;;;;12.60;9.63;;;;;;;;;;5110675;28;20437;-62
2021/08/19 04:45:23;;;;;;;10.30;8.40;;;;;;;;;;5110220;28;20976;-63
2021/08/19 04:47:50;;;;;;;9.93;8.37;;;;;;;;;;5110242;28;20473;-62
2021/08/19 04:50:17;;;;;;;11.97;9.10;;;;;;;;;;5110695;28;20442;-63
2021/08/19 04:52:44;;;;;;;11.10;9.60;;;;;;;;;;5110410;28;20879;-62
2021/08/19 04:55:12;;;;;;;11.23;10.00;;;;;;;;;;5109901;28;20458;-62
2021/08/19 04:57:39;;;;;;;10.77;9.60;;;;;;;;;;5110171;28;20441;-63
2021/08/19 05:00:09;;;;;;;10.57;9.53;;;;;;;;;;5109919;28;20467;-63
2021/08/19 05:02:36;;;;;;;11.80;9.67;;;;;;;;;;5110295;28;20514;-63
2021/08/19 05:05:03;;;;;;;12.07;9.70;;;;;;;;;;5109897;28;20461;-62
2021/08/19 05:07:30;;;;;;;11.90;10.23;;;;;;;;;;5109887;28;20473;-63
2021/08/19 05:09:58;;;;;;;10.93;9.83;;;;;;;;;;5110197;28;20449;-63
2021/08/19 05:12:25;;;;;;;11.13;10.03;;;;;;;;;;5109953;28;20445;-63
2021/08/19 05:14:52;;;;;;;12.50;9.43;;;;;;;;;;5109562;28;20495;-63
2021/08/19 05:17:21;;;;;;;11.87;10.00;;;;;;;;;;5109927;28;20492;-62
2021/08/19 05:19:48;;;;;;;11.37;9.43;;;;;;;;;;5097384;28;20499;-63
2021/08/19 05:22:15;;;;;;;11.40;10.20;;;;;;;;;;5097143;28;20492;-63
2021/08/19 05:24:42;;;;;;;12.20;10.00;;;;;;;;;;5096447;28;20472;-65
2021/08/19 05:27:10;;;;;;;10.93;9.83;;;;;;;;;;5096883;28;20887;-63
2021/08/19 05:29:37;;;;;;;12.60;10.60;;;;;;;;;;5097069;28;20438;-62
2021/08/19 05:32:04;;;;;;;14.43;9.97;;;;;;;;;;5096693;28;20450;-62
2021/08/19 05:34:33;;;;;;;12.87;10.73;;;;;;;;;;5095842;28;20496;-63
2021/08/19 05:37:00;;;;;;;11.20;10.00;;;;;;;;;;5095443;28;21034;-64
2021/08/19 05:39:27;;;;;;;13.23;9.87;;;;;;;;;;5095608;28;20442;-63
2021/08/19 05:41:55;;;;;;;11.53;10.30;;;;;;;;;;5095820;28;20906;-62
2021/08/19 05:44:22;;;;;;;13.20;10.37;;;;;;;;;;5095768;28;20442;-63
2021/08/19 05:46:49;;;;;;;13.67;10.77;;;;;;;;;;5095567;28;20482;-62
2021/08/19 05:49:16;;;;;;;13.57;9.57;;;;;;;;;;5095772;28;20524;-63
2021/08/19 05:51:45;;;;;;;12.10;10.20;;;;;;;;;;5096652;28;20503;-63
2021/08/19 05:54:12;;;;;;;12.83;10.37;;;;;;;;;;5099875;28;20923;-63
2021/08/19 05:56:39;;;;;;;11.23;10.03;;;;;;;;;;5095455;28;20462;-63
2021/08/19 05:59:07;;;;;;;10.90;9.80;;;;;;;;;;5095413;28;20515;-63
2021/08/19 06:01:34;;;;;;;14.13;10.33;;;;;;;;;;5095084;28;20503;-63
2021/08/19 06:04:01;;;;;;;13.30;11.33;;;;;;;;;;5095290;28;20945;-63
2021/08/19 06:06:28;;;;;;;10.87;9.77;;;;;;;;;;5095098;28;20539;-63
2021/08/19 06:08:57;;;;;;;11.43;9.87;;;;;;;;;;5095286;28;20458;-63
2021/08/19 06:11:24;;;;;;;11.03;9.97;;;;;;;;;;5095269;28;20492;-63
2021/08/19 06:13:51;;;;;;;10.60;9.27;;;;;;;;;;5095369;28;20849;-63
2021/08/19 06:16:19;;;;;;;11.80;9.10;;;;;;;;;;5094966;28;20458;-62
2021/08/19 06:18:46;;;;;;;11.13;9.93;;;;;;;;;;5094945;28;20438;-62
2021/08/19 06:21:13;;;;;;;11.13;10.03;;;;;;;;;;5081126;22;20984;-59
2021/08/19 06:23:40;;;;;;;13.00;11.00;;;;;;;;;;5034798;28;20449;-59
2021/08/19 06:26:09;;;;;;;13.70;10.23;;;;;;;;;;5034533;28;20449;-59
2021/08/19 06:28:36;;;;;;;12.50;9.47;;;;;;;;;;5034339;28;20477;-60
2021/08/19 06:31:03;;;;;;;12.67;9.60;;;;;;;;;;5033534;28;20465;-59
2021/08/19 06:33:31;;;;;;;10.00;9.00;;;;;;;;;;5034739;28;20498;-59
2021/08/19 06:35:58;;;;;;;10.37;9.27;;;;;;;;;;5034817;28;20795;-59
2021/08/19 06:38:25;;;;;;;10.83;9.70;;;;;;;;;;5034088;28;20490;-58
2021/08/19 06:40:52;;;;;;;11.50;10.03;;;;;;;;;;5034049;28;20465;-58
2021/08/19 06:43:21;;;;;;;12.00;10.70;;;;;;;;;;5034356;28;20503;-59
2021/08/19 06:45:48;;;;;;;11.20;10.10;;;;;;;;;;5034054;28;20448;-59
2021/08/19 06:48:16;;;;;;;11.83;9.23;;;;;;;;;;5033977;28;20531;-59
2021/08/19 06:50:43;;;;;;;13.87;10.20;;;;;;;;;;5034203;28;20551;-59
2021/08/19 06:53:10;;;;;;;15.47;9.70;;;;;;;;;;5033886;28;20864;-58
2021/08/19 06:55:37;;;;;;;11.07;9.27;;;;;;;;;;5034232;28;20451;-59
2021/08/19 06:58:05;;;;;;;11.47;10.30;;;;;;;;;;5033821;28;20491;-59
2021/08/19 07:00:33;;;;;;;10.60;9.60;;;;;;;;;;5034004;28;20487;-59
2021/08/19 07:03:01;;;;;;;10.63;9.53;;;;;;;;;;5034116;28;20453;-58
2021/08/19 07:05:28;;;;;;;12.70;9.63;;;;;;;;;;5033678;28;20941;-57
2021/08/19 07:07:59;;;;;;;13.93;9.40;;;;;;;;;;5033536;28;20890;-58
2021/08/19 07:10:26;;;;;;;10.80;8.90;;;;;;;;;;5034348;28;20496;-58
2021/08/19 07:12:53;;;;;;;10.43;9.30;;;;;;;;;;5034025;28;20456;-58
2021/08/19 07:15:21;;;;;;;11.77;9.90;;;;;;;;;;5033562;28;20457;-59
2021/08/19 07:17:49;;;;;;;9.77;8.77;;;;;;;;;;5033525;28;20506;-58
2021/08/19 07:20:17;;;;;;;12.10;9.80;;;;;;;;;;5033577;28;20469;-58
2021/08/19 07:22:45;;;;;;;9.40;8.50;;;;;;;;;;5033381;28;20430;-59
2021/08/19 07:25:13;;;;;;;10.97;9.60;;;;;;;;;;5033365;28;20452;-59
2021/08/19 07:27:40;;;;;;;10.90;9.80;;;;;;;;;;5033430;28;20473;-59
2021/08/19 07:30:08;;;;;;;11.47;10.37;;;;;;;;;;5033057;28;20473;-60
2021/08/19 07:32:35;;;;;;;13.73;11.37;;;;;;;;;;5033036;28;20556;-59
2021/08/19 07:35:04;;;;;;;12.80;11.50;;;;;;;;;;5033490;28;20859;-59
2021/08/19 07:37:31;;;;;;;20.30;11.80;;;;;;;;;;5033583;28;20506;-60
2021/08/19 07:39:58;;;;;;;13.97;11.50;;;;;;;;;;5033377;28;20499;-60
2021/08/19 07:42:26;;;;;;;14.90;11.80;;;;;;;;;;5032787;28;20511;-59
2021/08/19 07:44:53;;;;;;;14.53;13.00;;;;;;;;;;5033268;28;20449;-60
2021/08/19 07:47:22;;;;;;;15.23;12.17;;;;;;;;;;5033369;28;20448;-59
2021/08/19 07:49:49;;;;;;;15.07;12.80;;;;;;;;;;5033360;28;20453;-59
2021/08/19 07:52:18;;;;;;;13.47;12.03;;;;;;;;;;5033138;28;20543;-58
2021/08/19 07:54:45;;;;;;;14.63;12.87;;;;;;;;;;5033351;28;20813;-59
2021/08/19 07:57:12;;;;;;;19.10;12.27;;;;;;;;;;5033349;28;20448;-58
2021/08/19 07:59:40;;;;;;;17.13;12.27;;;;;;;;;;5033247;28;20441;-59
2021/08/19 08:02:07;;;;;;;14.67;13.17;;;;;;;;;;5032816;28;20523;-59
2021/08/19 08:04:34;;;;;;;14.67;11.83;;;;;;;;;;5032769;28;20441;-59
2021/08/19 08:07:01;;;;;;;12.10;10.80;;;;;;;;;;5033343;28;20449;-59
2021/08/19 08:09:30;;;;;;;14.50;11.20;;;;;;;;;;5033271;28;20484;-58
2021/08/19 08:11:58;;;;;;;33.63;12.63;;;;;;;;;;5033252;28;20534;-59
2021/08/19 08:14:25;;;;;;;12.27;10.73;;;;;;;;;;5033240;28;20452;-60
2021/08/19 08:16:53;;;;;;;17.97;11.60;;;;;;;;;;5033161;28;20514;-59
2021/08/19 08:19:20;;;;;;;15.47;10.87;;;;;;;;;;5034268;28;20514;-59
2021/08/19 08:21:47;;;;;;;15.03;11.13;;;;;;;;;;5032315;28;21046;-60
2021/08/19 08:24:14;;;;;;;18.57;10.90;;;;;;;;;;5032613;28;20453;-57
2021/08/19 08:26:43;;;;;;;13.83;10.47;;;;;;;;;;5032964;28;20491;-60
2021/08/19 08:29:12;;;;;;;11.53;9.53;;;;;;;;;;5033686;28;20481;-60
2021/08/19 08:31:40;;;;;;;13.10;9.80;;;;;;;;;;5032964;28;20468;-60
2021/08/19 08:34:07;;;;;;;11.03;9.93;;;;;;;;;;5032935;28;20459;-59
2021/08/19 08:36:35;;;;;;;11.37;10.03;;;;;;;;;;5033144;28;20449;-59
2021/08/19 08:39:03;;;;;;;12.57;10.17;;;;;;;;;;5032654;28;20448;-59
2021/08/19 08:41:31;;;;;;;12.00;10.00;;;;;;;;;;5033372;28;20475;-59
2021/08/19 08:43:59;;;;;;;10.67;9.57;;;;;;;;;;5032494;28;20452;-60
2021/08/19 08:46:28;;;;;;;11.43;9.80;;;;;;;;;;5032748;28;20503;-59
2021/08/19 08:48:56;;;;;;;14.33;9.73;;;;;;;;;;5032478;28;20476;-59
2021/08/19 08:51:24;;;;;;;11.47;10.23;;;;;;;;;;5032774;28;20488;-59
2021/08/19 08:53:52;;;;;;;12.90;9.60;;;;;;;;;;5033966;28;20445;-59
2021/08/19 08:56:19;;;;;;;12.40;9.83;;;;;;;;;;5036494;28;20854;-59
2021/08/19 08:58:46;;;;;;;11.63;9.97;;;;;;;;;;5035887;28;20449;-59
2021/08/19 09:01:15;;;;;;;10.90;9.90;;;;;;;;;;5036140;28;20464;-58
2021/08/19 09:03:42;;;;;;;13.40;10.90;;;;;;;;;;5035942;28;20444;-59
2021/08/19 09:06:09;;;;;;;13.13;10.40;;;;;;;;;;5035957;28;20499;-59
2021/08/19 09:08:40;;;;;;;14.53;10.50;;;;;;;;;;5035664;28;20523;-60
2021/08/19 09:11:07;;;;;;;12.30;10.50;;;;;;;;;;5036164;28;20469;-60
2021/08/19 09:13:34;;;;;;;12.70;10.90;;;;;;;;;;5036037;28;20449;-60
2021/08/19 09:16:16;;;;;;;14.03;10.53;;;;;;;;;;5036550;28;20445;-60
2021/08/19 09:18:43;;;;;;;12.77;11.10;;;;;;;;;;5035982;28;20441;-60
2021/08/19 09:21:21;;;;;;;13.53;9.83;;;;;;;;;;5035538;28;20856;-60
2021/08/19 09:23:48;;;;;;;11.70;10.60;;;;;;;;;;5035860;28;20456;-60
2021/08/19 09:26:27;;;;;;;13.30;11.57;;;;;;;;;;5035727;28;20541;-59
2021/08/19 09:29:10;;;;;;;11.70;10.13;;;;;;;;;;5035734;28;20507;-59
2021/08/19 09:31:38;;;;;;;12.07;10.87;;;;;;;;;;5035186;28;20874;-59
2021/08/19 09:34:05;;;;;;;13.63;12.43;;;;;;;;;;5035506;28;20507;-57
2021/08/19 09:36:36;;;;;;;10.93;9.83;;;;;;;;;;5035530;28;20875;-57
2021/08/19 09:39:05;;;;;;;11.27;10.20;;;;;;;;;;5035598;28;20483;-58
2021/08/19 09:41:32;;;;;;;12.33;11.20;;;;;;;;;;5034965;28;20492;-59
2021/08/19 09:44:00;;;;;;;11.07;9.97;;;;;;;;;;5035472;28;20444;-59
2021/08/19 09:46:36;;;;;;;11.07;9.87;;;;;;;;;;5035572;28;20575;-59
2021/08/19 09:49:21;;;;;;;11.93;10.13;;;;;;;;;;5034787;28;20461;-59
2021/08/19 09:51:59;;;;;;;11.90;9.80;;;;;;;;;;5035281;28;20465;-59
2021/08/19 09:54:29;;;;;;;11.43;9.87;;;;;;;;;;5034981;28;20972;-59
2021/08/19 09:56:57;;;;;;;12.30;10.67;;;;;;;;;;5035464;28;20449;-59
2021/08/19 09:59:25;;;;;;;12.10;10.87;;;;;;;;;;5034924;28;20445;-60
2021/08/19 10:01:53;;;;;;;10.13;9.13;;;;;;;;;;5035100;28;20469;-60
2021/08/19 10:04:23;;;;;;;11.10;10.00;;;;;;;;;;5034881;28;20445;-59
2021/08/19 10:06:50;;;;;;;12.88;11.57;;;;;;;;;;5034478;28;20453;-58
2021/08/19 10:09:18;;;;;;;11.07;9.87;;;;;;;;;;5034806;28;20522;-59
2021/08/19 10:11:46;;;;;;;13.97;9.93;;;;;;;;;;5034688;28;20465;-59
2021/08/19 10:14:14;;;;;;;11.70;10.50;;;;;;;;;;5034729;28;20441;-58
2021/08/19 10:16:42;;;;;;;15.20;11.50;;;;;;;;;;5034773;28;20457;-58
2021/08/19 10:19:11;;;;;;;13.80;11.20;;;;;;;;;;5034268;28;20452;-58
2021/08/19 10:21:42;;;;;;;13.53;12.10;;;;;;;;;;5034071;28;20477;-57
2021/08/19 10:24:11;;;;;;;12.57;11.27;;;;;;;;;;5033978;28;20421;-57
2021/08/19 10:26:38;;;;;;;15.93;11.57;;;;;;;;;;5034716;28;20838;-57
2021/08/19 10:29:06;;;;;;;13.40;11.80;;;;;;;;;;5033929;28;20480;-57
2021/08/19 10:31:49;;;;;;;13.77;12.27;;;;;;;;;;5034152;28;20486;-58
2021/08/19 10:34:17;;;;;;;12.20;11.10;;;;;;;;;;5034186;28;20453;-57
2021/08/19 10:36:55;;;;;;;13.50;11.23;;;;;;;;;;5033640;28;20543;-57
2021/08/19 10:39:39;;;;;;;13.67;12.27;;;;;;;;;;5034152;28;20436;-57
2021/08/19 10:42:09;;;;;;;12.43;11.33;;;;;;;;;;5034205;28;20488;-56
2021/08/19 10:44:38;;;;;;;14.17;11.50;;;;;;;;;;5033774;28;20448;-58
2021/08/19 10:47:06;;;;;;;13.30;12.10;;;;;;;;;;5034131;28;20511;-57
2021/08/19 10:49:38;;;;;;;15.23;13.73;;;;;;;;;;5033873;28;20509;-57
2021/08/19 10:52:23;;;;;;;16.43;14.83;;;;;;;;;;5033860;28;20473;-57
2021/08/19 10:54:52;;;;;;;19.30;17.33;;;;;;;;;;5033637;28;20445;-57
2021/08/19 10:57:30;;;;;;;20.57;16.13;;;;;;;;;;5033573;28;20999;-57
2021/08/19 10:59:58;;;;;;;18.23;16.43;;;;;;;;;;5033601;28;20445;-57
2021/08/19 11:02:38;;;;;;;23.60;18.00;;;;;;;;;;5033785;28;20448;-57
2021/08/19 11:05:06;;;;;;;19.10;17.10;;;;;;;;;;5033911;28;20524;-59
2021/08/19 11:07:57;;;;;;;18.53;16.63;;;;;;;;;;5033373;28;20445;-59
2021/08/19 11:10:27;;;;;;;20.00;14.90;;;;;;;;;;5018539;28;20489;-59
2021/08/19 11:12:55;;;;;;;17.63;15.87;;;;;;;;;;5033788;28;20571;-59
2021/08/19 11:15:22;;;;;;;19.93;15.83;;;;;;;;;;5033890;28;20498;-60
2021/08/19 11:17:53;;;;;;;18.33;15.53;;;;;;;;;;5032838;28;20865;-59
2021/08/19 11:20:21;;;;;;;19.63;16.43;;;;;;;;;;5032988;28;20830;-60
2021/08/19 11:22:59;;;;;;;17.73;15.93;;;;;;;;;;5033878;28;20535;-60
2021/08/19 11:25:28;;;;;;;18.97;17.10;;;;;;;;;;5033731;28;20495;-59
2021/08/19 11:27:55;;;;;;;17.53;15.73;;;;;;;;;;5033538;28;20457;-59
2021/08/19 11:30:32;;;;;;;17.33;15.53;;;;;;;;;;5033219;28;21047;-59
2021/08/19 11:33:12;;;;;;;18.20;16.10;;;;;;;;;;5033254;28;20445;-60
2021/08/19 11:35:40;;;;;;;16.33;14.83;;;;;;;;;;5033007;28;20441;-59
2021/08/19 11:38:14;;;;;;;16.40;14.53;;;;;;;;;;5033035;28;20941;-60
2021/08/19 11:40:44;;;;;;;15.87;14.37;;;;;;;;;;5032904;28;20979;-60
2021/08/19 11:43:22;;;;;;;13.97;12.47;;;;;;;;;;5032996;28;20446;-59
2021/08/19 11:45:49;;;;;;;17.20;13.80;;;;;;;;;;5033142;28;20445;-60
2021/08/19 11:48:19;;;;;;;22.70;14.27;;;;;;;;;;5032988;28;20877;-59
2021/08/19 11:50:52;;;;;;;15.80;14.20;;;;;;;;;;5033116;28;20524;-60
2021/08/19 11:53:19;;;;;;;12.77;11.40;;;;;;;;;;5033167;28;20528;-60
2021/08/19 11:55:48;;;;;;;11.60;9.80;;;;;;;;;;5032671;28;20445;-59
2021/08/19 11:58:16;;;;;;;12.10;9.90;;;;;;;;;;5033063;28;20495;-60
2021/08/19 12:01:01;;;;;;;10.53;9.50;;;;;;;;;;5033136;28;20468;-60
2021/08/19 12:03:28;;;;;;;11.10;10.00;;;;;;;;;;5032942;28;20820;-59
2021/08/19 12:06:00;;;;;;;11.63;10.53;;;;;;;;;;5032473;28;20454;-60
2021/08/19 12:08:27;;;;;;;10.80;9.50;;;;;;;;;;5033019;28;20494;-60
2021/08/19 12:10:57;;;;;;;11.13;10.00;;;;;;;;;;5032656;28;21052;-60
2021/08/19 12:13:25;;;;;;;11.23;10.23;;;;;;;;;;5033116;28;20489;-60
2021/08/19 12:15:53;;;;;;;10.37;9.27;;;;;;;;;;5032486;28;20491;-60
2021/08/19 12:18:23;;;;;;;11.30;9.50;;;;;;;;;;5032794;28;20438;-59
2021/08/19 12:20:51;;;;;;;9.63;8.63;;;;;;;;;;5048115;22;20895;-60
2021/08/19 12:23:19;;;;;;;10.30;9.30;;;;;;;;;;5032703;28;20448;-60
2021/08/19 12:25:47;;;;;;;9.67;8.77;;;;;;;;;;5032712;28;20934;-59
2021/08/19 12:28:17;;;;;;;9.20;8.30;;;;;;;;;;5033511;28;20866;-59
2021/08/19 12:30:57;;;;;;;9.47;8.50;;;;;;;;;;5036679;28;20481;-59
2021/08/19 12:33:31;;;;;;;9.77;8.77;;;;;;;;;;5036795;28;20455;-58
2021/08/19 12:36:14;;;;;;;10.47;9.37;;;;;;;;;;5037791;28;20534;-61
2021/08/19 12:38:42;;;;;;;12.80;9.50;;;;;;;;;;5036674;28;20486;-60
2021/08/19 12:41:16;;;;;;;14.63;9.73;;;;;;;;;;5036666;28;20524;-60
2021/08/19 12:43:45;;;;;;;11.37;10.17;;;;;;;;;;5036433;28;20446;-60
2021/08/19 12:46:13;;;;;;;11.07;9.93;;;;;;;;;;5036415;28;20446;-61
2021/08/19 12:48:40;;;;;;;10.83;9.73;;;;;;;;;;5036228;28;20543;-61
2021/08/19 12:51:28;;;;;;;10.50;9.33;;;;;;;;;;5035608;28;20987;-60
2021/08/19 12:54:02;;;;;;;10.07;9.07;;;;;;;;;;5029976;28;20515;-58
2021/08/19 12:56:29;;;;;;;9.87;8.90;;;;;;;;;;5036133;28;20449;-60
2021/08/19 12:58:58;;;;;;;8.70;7.90;;;;;;;;;;5036333;28;20452;-60
2021/08/19 13:01:25;;;;;;;10.37;9.37;;;;;;;;;;5035937;28;20468;-59
2021/08/19 13:03:52;;;;;;;10.30;9.30;;;;;;;;;;5036095;28;21002;-59
2021/08/19 13:06:20;;;;;;;10.07;9.13;;;;;;;;;;5036514;28;20938;-59
2021/08/19 13:08:48;;;;;;;11.60;10.50;;;;;;;;;;5036230;28;20477;-60
2021/08/19 13:11:15;;;;;;;11.73;10.53;;;;;;;;;;5036132;28;20464;-59
2021/08/19 13:13:43;;;;;;;13.40;12.00;;;;;;;;;;5036002;28;20437;-58
2021/08/19 13:16:11;;;;;;;13.37;12.07;;;;;;;;;;5036187;28;20494;-58
2021/08/19 13:18:38;;;;;;;12.83;11.53;;;;;;;;;;5036625;28;20515;-58
2021/08/19 13:21:07;;;;;;;13.77;11.50;;;;;;;;;;5035573;28;20531;-58
2021/08/19 13:23:34;;;;;;;13.23;11.93;;;;;;;;;;5036127;28;20444;-58
2021/08/19 13:26:02;;;;;;;13.20;11.90;;;;;;;;;;5035813;28;20471;-58
2021/08/19 13:28:29;;;;;;;13.67;12.27;;;;;;;;;;5035738;28;20506;-57
2021/08/19 13:30:56;;;;;;;13.33;11.47;;;;;;;;;;5036040;28;20492;-57
2021/08/19 13:33:25;;;;;;;13.57;12.20;;;;;;;;;;5035676;28;20511;-58
2021/08/19 13:35:52;;;;;;;12.73;11.30;;;;;;;;;;5035321;28;20500;-58
2021/08/19 13:38:20;;;;;;;12.13;10.60;;;;;;;;;;5035555;28;20511;-58
2021/08/19 13:40:47;;;;;;;13.17;11.97;;;;;;;;;;5034944;28;20525;-58
2021/08/19 13:43:14;;;;;;;14.13;12.83;;;;;;;;;;5035725;28;20455;-60
2021/08/19 13:45:42;;;;;;;12.17;10.93;;;;;;;;;;5035207;28;21024;-57
2021/08/19 13:48:09;;;;;;;13.40;12.00;;;;;;;;;;5034877;28;20500;-57
2021/08/19 13:50:38;;;;;;;14.10;12.53;;;;;;;;;;5034843;28;20993;-58
2021/08/19 13:53:05;;;;;;;14.83;13.33;;;;;;;;;;5036524;28;20482;-68
2021/08/19 13:55:33;;;;;;;15.43;13.93;;;;;;;;;;5042792;28;20475;-68
2021/08/19 13:58:01;;;;;;;17.53;15.60;;;;;;;;;;5042361;28;20532;-60
2021/08/19 14:00:28;;;;;;;21.30;18.97;;;;;;;;;;5035575;28;20445;-57
2021/08/19 14:02:55;;;;;;;19.70;17.60;;;;;;;;;;5035333;28;20445;-57
2021/08/19 14:05:23;;;;;;;18.50;16.50;;;;;;;;;;5035071;28;20448;-58
2021/08/19 14:07:51;;;;;;;18.70;16.70;;;;;;;;;;5034681;28;20959;-57
2021/08/19 14:10:18;;;;;;;17.50;15.67;;;;;;;;;;5034546;28;20493;-58
2021/08/19 14:12:47;;;;;;;18.50;16.10;;;;;;;;;;5034658;28;20494;-58
2021/08/19 14:15:15;;;;;;;17.23;15.37;;;;;;;;;;5034462;28;20969;-58
2021/08/19 14:17:42;;;;;;;16.97;14.77;;;;;;;;;;5034390;28;21007;-59
2021/08/19 14:20:10;;;;;;;16.17;14.53;;;;;;;;;;5034577;28;20453;-59
2021/08/19 14:22:37;;;;;;;19.47;17.57;;;;;;;;;;5034528;28;20922;-57
2021/08/19 14:25:07;;;;;;;18.40;16.50;;;;;;;;;;5035234;28;20441;-59
2021/08/19 14:27:35;;;;;;;19.60;17.70;;;;;;;;;;5034594;28;20449;-59
2021/08/19 14:30:02;;;;;;;19.17;16.33;;;;;;;;;;5034653;28;20527;-57
2021/08/19 14:32:29;;;;;;;21.37;18.37;;;;;;;;;;5034314;28;20515;-59
2021/08/19 14:34:56;;;;;;;20.23;18.33;;;;;;;;;;5034466;28;20800;-57
2021/08/19 14:37:23;;;;;;;19.37;17.43;;;;;;;;;;5034523;28;20453;-57
2021/08/19 14:39:51;;;;;;;19.63;17.47;;;;;;;;;;5034448;28;20437;-59